sensor_id;sensor_type;location;lat;lon;timestamp;P1;durP1;ratioP1;P2;durP2;ratioP2
75446;SDS011;64024;55.820;37.574;2023-04-03T00:02:20;6.63;;;5.60;;
75446;SDS011;64024;55.820;37.574;2023-04-03T00:04:46;5.90;;;5.30;;
75446;SDS011;64024;55.820;37.574;2023-04-03T00:07:12;5.60;;;5.10;;
75446;SDS011;64024;55.820;37.574;2023-04-03T00:09:40;6.82;;;5.97;;
75446;SDS011;64024;55.820;37.574;2023-04-03T00:12:06;7.05;;;5.65;;
75446;SDS011;64024;55.820;37.574;2023-04-03T00:14:33;6.32;;;5.72;;
75446;SDS011;64024;55.820;37.574;2023-04-03T00:16:59;6.65;;;5.97;;
75446;SDS011;64024;55.820;37.574;2023-04-03T00:19:25;5.63;;;5.13;;
75446;SDS011;64024;55.820;37.574;2023-04-03T00:21:51;6.40;;;5.70;;
75446;SDS011;64024;55.820;37.574;2023-04-03T00:24:19;6.07;;;5.47;;
75446;SDS011;64024;55.820;37.574;2023-04-03T00:26:45;6.63;;;5.35;;
75446;SDS011;64024;55.820;37.574;2023-04-03T00:29:11;7.68;;;6.13;;
75446;SDS011;64024;55.820;37.574;2023-04-03T00:31:37;6.45;;;5.78;;
75446;SDS011;64024;55.820;37.574;2023-04-03T00:34:03;7.13;;;5.13;;
75446;SDS011;64024;55.820;37.574;2023-04-03T00:36:29;6.88;;;6.20;;
75446;SDS011;64024;55.820;37.574;2023-04-03T00:38:55;6.13;;;5.57;;
75446;SDS011;64024;55.820;37.574;2023-04-03T00:41:22;7.88;;;5.57;;
75446;SDS011;64024;55.820;37.574;2023-04-03T00:43:48;5.72;;;5.13;;
75446;SDS011;64024;55.820;37.574;2023-04-03T00:46:14;8.40;;;6.38;;
75446;SDS011;64024;55.820;37.574;2023-04-03T00:48:41;6.85;;;6.15;;
75446;SDS011;64024;55.820;37.574;2023-04-03T00:51:10;6.50;;;5.40;;
75446;SDS011;64024;55.820;37.574;2023-04-03T00:53:53;7.22;;;5.93;;
75446;SDS011;64024;55.820;37.574;2023-04-03T00:56:25;6.47;;;5.88;;
75446;SDS011;64024;55.820;37.574;2023-04-03T00:58:57;6.65;;;4.75;;
75446;SDS011;64024;55.820;37.574;2023-04-03T01:01:36;5.75;;;5.15;;
75446;SDS011;64024;55.820;37.574;2023-04-03T01:04:03;5.50;;;5.00;;
75446;SDS011;64024;55.820;37.574;2023-04-03T01:06:34;7.78;;;5.88;;
75446;SDS011;64024;55.820;37.574;2023-04-03T01:09:02;5.75;;;5.25;;
75446;SDS011;64024;55.820;37.574;2023-04-03T01:11:28;6.40;;;5.68;;
75446;SDS011;64024;55.820;37.574;2023-04-03T01:13:54;6.10;;;5.07;;
75446;SDS011;64024;55.820;37.574;2023-04-03T01:16:20;6.40;;;4.85;;
75446;SDS011;64024;55.820;37.574;2023-04-03T01:18:48;5.70;;;5.15;;
75446;SDS011;64024;55.820;37.574;2023-04-03T01:26:46;6.82;;;4.85;;
75446;SDS011;64024;55.820;37.574;2023-04-03T01:29:14;5.45;;;4.88;;
75446;SDS011;64024;55.820;37.574;2023-04-03T01:31:54;6.35;;;5.35;;
75446;SDS011;64024;55.820;37.574;2023-04-03T01:34:21;5.63;;;5.13;;
75446;SDS011;64024;55.820;37.574;2023-04-03T01:36:48;5.85;;;5.25;;
75446;SDS011;64024;55.820;37.574;2023-04-03T01:39:15;6.85;;;5.13;;
75446;SDS011;64024;55.820;37.574;2023-04-03T01:41:41;7.10;;;5.00;;
75446;SDS011;64024;55.820;37.574;2023-04-03T01:44:08;6.13;;;5.00;;
75446;SDS011;64024;55.820;37.574;2023-04-03T01:46:34;5.72;;;4.90;;
75446;SDS011;64024;55.820;37.574;2023-04-03T01:49:00;5.00;;;4.47;;
75446;SDS011;64024;55.820;37.574;2023-04-03T01:51:26;6.90;;;4.80;;
75446;SDS011;64024;55.820;37.574;2023-04-03T01:53:52;5.75;;;4.80;;
75446;SDS011;64024;55.820;37.574;2023-04-03T01:56:19;5.85;;;5.20;;
75446;SDS011;64024;55.820;37.574;2023-04-03T01:58:45;5.80;;;5.13;;
75446;SDS011;64024;55.820;37.574;2023-04-03T02:01:11;6.72;;;5.25;;
75446;SDS011;64024;55.820;37.574;2023-04-03T02:03:38;6.07;;;4.95;;
75446;SDS011;64024;55.820;37.574;2023-04-03T02:06:05;7.50;;;5.35;;
75446;SDS011;64024;55.820;37.574;2023-04-03T02:08:31;5.60;;;5.00;;
75446;SDS011;64024;55.820;37.574;2023-04-03T02:10:58;6.10;;;4.72;;
75446;SDS011;64024;55.820;37.574;2023-04-03T02:13:24;6.68;;;5.95;;
75446;SDS011;64024;55.820;37.574;2023-04-03T02:15:50;6.18;;;5.57;;
75446;SDS011;64024;55.820;37.574;2023-04-03T02:18:16;6.22;;;5.25;;
75446;SDS011;64024;55.820;37.574;2023-04-03T02:20:43;5.70;;;4.95;;
75446;SDS011;64024;55.820;37.574;2023-04-03T02:23:10;5.65;;;4.95;;
75446;SDS011;64024;55.820;37.574;2023-04-03T02:25:36;6.10;;;4.72;;
75446;SDS011;64024;55.820;37.574;2023-04-03T02:28:03;5.97;;;5.03;;
75446;SDS011;64024;55.820;37.574;2023-04-03T02:30:29;6.25;;;5.65;;
75446;SDS011;64024;55.820;37.574;2023-04-03T02:32:55;5.90;;;5.20;;
75446;SDS011;64024;55.820;37.574;2023-04-03T02:35:21;6.65;;;5.55;;
75446;SDS011;64024;55.820;37.574;2023-04-03T02:37:47;5.88;;;5.15;;
75446;SDS011;64024;55.820;37.574;2023-04-03T02:40:12;6.90;;;5.50;;
75446;SDS011;64024;55.820;37.574;2023-04-03T02:42:38;6.05;;;5.45;;
75446;SDS011;64024;55.820;37.574;2023-04-03T02:45:05;6.55;;;5.78;;
75446;SDS011;64024;55.820;37.574;2023-04-03T02:47:31;7.10;;;5.63;;
75446;SDS011;64024;55.820;37.574;2023-04-03T02:49:58;6.18;;;5.57;;
75446;SDS011;64024;55.820;37.574;2023-04-03T02:52:24;8.55;;;4.93;;
75446;SDS011;64024;55.820;37.574;2023-04-03T02:54:49;7.35;;;5.50;;
75446;SDS011;64024;55.820;37.574;2023-04-03T02:57:15;6.40;;;5.78;;
75446;SDS011;64024;55.820;37.574;2023-04-03T02:59:42;6.25;;;5.28;;
75446;SDS011;64024;55.820;37.574;2023-04-03T03:02:09;6.00;;;5.13;;
75446;SDS011;64024;55.820;37.574;2023-04-03T03:04:36;6.75;;;5.07;;
75446;SDS011;64024;55.820;37.574;2023-04-03T03:07:03;9.20;;;6.55;;
75446;SDS011;64024;55.820;37.574;2023-04-03T03:09:29;6.22;;;5.32;;
75446;SDS011;64024;55.820;37.574;2023-04-03T03:11:56;6.63;;;5.28;;
75446;SDS011;64024;55.820;37.574;2023-04-03T03:14:23;6.70;;;5.32;;
75446;SDS011;64024;55.820;37.574;2023-04-03T03:16:50;7.40;;;5.85;;
75446;SDS011;64024;55.820;37.574;2023-04-03T03:19:16;6.57;;;5.07;;
75446;SDS011;64024;55.820;37.574;2023-04-03T03:21:43;6.97;;;5.55;;
75446;SDS011;64024;55.820;37.574;2023-04-03T03:24:09;8.32;;;5.70;;
75446;SDS011;64024;55.820;37.574;2023-04-03T03:26:37;7.68;;;5.68;;
75446;SDS011;64024;55.820;37.574;2023-04-03T03:29:04;6.90;;;5.32;;
75446;SDS011;64024;55.820;37.574;2023-04-03T03:31:30;7.43;;;5.70;;
75446;SDS011;64024;55.820;37.574;2023-04-03T03:33:57;7.70;;;5.53;;
75446;SDS011;64024;55.820;37.574;2023-04-03T03:36:23;6.25;;;5.65;;
75446;SDS011;64024;55.820;37.574;2023-04-03T03:38:49;6.85;;;5.40;;
75446;SDS011;64024;55.820;37.574;2023-04-03T03:41:16;6.78;;;5.97;;
75446;SDS011;64024;55.820;37.574;2023-04-03T03:43:42;6.28;;;5.68;;
75446;SDS011;64024;55.820;37.574;2023-04-03T03:46:09;8.63;;;6.55;;
75446;SDS011;64024;55.820;37.574;2023-04-03T03:48:35;7.57;;;6.32;;
75446;SDS011;64024;55.820;37.574;2023-04-03T03:51:01;8.75;;;7.03;;
75446;SDS011;64024;55.820;37.574;2023-04-03T03:53:27;7.55;;;6.75;;
75446;SDS011;64024;55.820;37.574;2023-04-03T03:55:54;9.27;;;7.43;;
75446;SDS011;64024;55.820;37.574;2023-04-03T03:58:21;9.35;;;7.88;;
75446;SDS011;64024;55.820;37.574;2023-04-03T04:00:47;9.02;;;8.10;;
75446;SDS011;64024;55.820;37.574;2023-04-03T04:03:13;8.57;;;7.43;;
75446;SDS011;64024;55.820;37.574;2023-04-03T04:05:40;7.72;;;6.93;;
75446;SDS011;64024;55.820;37.574;2023-04-03T04:08:05;10.88;;;8.60;;
75446;SDS011;64024;55.820;37.574;2023-04-03T04:10:33;9.07;;;7.63;;
75446;SDS011;64024;55.820;37.574;2023-04-03T04:12:59;10.38;;;9.05;;
75446;SDS011;64024;55.820;37.574;2023-04-03T04:15:25;9.60;;;8.43;;
75446;SDS011;64024;55.820;37.574;2023-04-03T04:17:52;9.55;;;8.60;;
75446;SDS011;64024;55.820;37.574;2023-04-03T04:20:19;10.85;;;9.50;;
75446;SDS011;64024;55.820;37.574;2023-04-03T04:22:45;9.88;;;8.88;;
75446;SDS011;64024;55.820;37.574;2023-04-03T04:25:12;10.35;;;9.20;;
75446;SDS011;64024;55.820;37.574;2023-04-03T04:27:39;12.50;;;10.25;;
75446;SDS011;64024;55.820;37.574;2023-04-03T04:30:05;10.80;;;9.68;;
75446;SDS011;64024;55.820;37.574;2023-04-03T04:32:32;11.73;;;10.50;;
75446;SDS011;64024;55.820;37.574;2023-04-03T04:34:58;11.50;;;10.32;;
75446;SDS011;64024;55.820;37.574;2023-04-03T04:37:24;11.40;;;10.40;;
75446;SDS011;64024;55.820;37.574;2023-04-03T04:39:50;10.90;;;9.82;;
75446;SDS011;64024;55.820;37.574;2023-04-03T04:42:16;11.00;;;9.85;;
75446;SDS011;64024;55.820;37.574;2023-04-03T04:44:42;13.32;;;10.18;;
75446;SDS011;64024;55.820;37.574;2023-04-03T04:47:08;11.40;;;10.35;;
75446;SDS011;64024;55.820;37.574;2023-04-03T04:49:34;12.02;;;10.82;;
75446;SDS011;64024;55.820;37.574;2023-04-03T04:52:01;11.18;;;10.13;;
75446;SDS011;64024;55.820;37.574;2023-04-03T04:54:27;11.80;;;10.55;;
75446;SDS011;64024;55.820;37.574;2023-04-03T04:56:53;13.75;;;12.35;;
75446;SDS011;64024;55.820;37.574;2023-04-03T04:59:20;13.00;;;11.63;;
75446;SDS011;64024;55.820;37.574;2023-04-03T05:04:13;10.85;;;9.85;;
75446;SDS011;64024;55.820;37.574;2023-04-03T05:06:40;11.82;;;10.25;;
75446;SDS011;64024;55.820;37.574;2023-04-03T05:09:07;11.43;;;10.27;;
75446;SDS011;64024;55.820;37.574;2023-04-03T05:11:34;12.02;;;10.93;;
75446;SDS011;64024;55.820;37.574;2023-04-03T05:14:00;12.88;;;11.70;;
75446;SDS011;64024;55.820;37.574;2023-04-03T05:16:27;12.20;;;11.05;;
75446;SDS011;64024;55.820;37.574;2023-04-03T05:18:53;11.82;;;10.77;;
75446;SDS011;64024;55.820;37.574;2023-04-03T05:21:20;12.23;;;11.00;;
75446;SDS011;64024;55.820;37.574;2023-04-03T05:23:48;12.65;;;11.52;;
75446;SDS011;64024;55.820;37.574;2023-04-03T05:26:14;12.70;;;11.57;;
75446;SDS011;64024;55.820;37.574;2023-04-03T05:28:40;13.30;;;12.00;;
75446;SDS011;64024;55.820;37.574;2023-04-03T05:33:33;12.20;;;11.07;;
75446;SDS011;64024;55.820;37.574;2023-04-03T05:36:06;11.23;;;10.23;;
75446;SDS011;64024;55.820;37.574;2023-04-03T05:38:32;13.02;;;11.82;;
75446;SDS011;64024;55.820;37.574;2023-04-03T05:40:58;12.52;;;11.23;;
75446;SDS011;64024;55.820;37.574;2023-04-03T05:43:24;12.77;;;11.57;;
75446;SDS011;64024;55.820;37.574;2023-04-03T05:45:51;13.40;;;12.00;;
75446;SDS011;64024;55.820;37.574;2023-04-03T05:48:17;12.10;;;10.85;;
75446;SDS011;64024;55.820;37.574;2023-04-03T05:50:43;13.25;;;11.98;;
75446;SDS011;64024;55.820;37.574;2023-04-03T05:53:16;12.82;;;11.70;;
75446;SDS011;64024;55.820;37.574;2023-04-03T05:55:49;12.00;;;11.00;;
75446;SDS011;64024;55.820;37.574;2023-04-03T05:58:15;13.20;;;11.98;;
75446;SDS011;64024;55.820;37.574;2023-04-03T06:00:41;14.50;;;12.98;;
75446;SDS011;64024;55.820;37.574;2023-04-03T06:03:07;13.70;;;12.30;;
75446;SDS011;64024;55.820;37.574;2023-04-03T06:05:33;14.38;;;12.98;;
75446;SDS011;64024;55.820;37.574;2023-04-03T06:08:00;14.52;;;13.13;;
75446;SDS011;64024;55.820;37.574;2023-04-03T06:10:28;14.35;;;13.10;;
75446;SDS011;64024;55.820;37.574;2023-04-03T06:12:54;14.20;;;12.77;;
75446;SDS011;64024;55.820;37.574;2023-04-03T06:15:20;14.73;;;13.23;;
75446;SDS011;64024;55.820;37.574;2023-04-03T06:17:48;15.18;;;13.77;;
75446;SDS011;64024;55.820;37.574;2023-04-03T06:20:14;14.45;;;13.15;;
75446;SDS011;64024;55.820;37.574;2023-04-03T06:22:39;16.02;;;14.50;;
75446;SDS011;64024;55.820;37.574;2023-04-03T06:25:07;16.17;;;14.57;;
75446;SDS011;64024;55.820;37.574;2023-04-03T06:27:34;14.27;;;13.02;;
75446;SDS011;64024;55.820;37.574;2023-04-03T06:30:00;15.48;;;13.13;;
75446;SDS011;64024;55.820;37.574;2023-04-03T06:32:27;14.32;;;12.90;;
75446;SDS011;64024;55.820;37.574;2023-04-03T06:34:53;14.90;;;13.55;;
75446;SDS011;64024;55.820;37.574;2023-04-03T06:37:22;15.48;;;13.88;;
75446;SDS011;64024;55.820;37.574;2023-04-03T06:39:54;14.45;;;13.15;;
75446;SDS011;64024;55.820;37.574;2023-04-03T06:42:22;14.55;;;13.25;;
75446;SDS011;64024;55.820;37.574;2023-04-03T06:44:49;15.75;;;14.35;;
75446;SDS011;64024;55.820;37.574;2023-04-03T06:47:16;14.73;;;13.40;;
75446;SDS011;64024;55.820;37.574;2023-04-03T06:49:43;15.48;;;14.15;;
75446;SDS011;64024;55.820;37.574;2023-04-03T06:52:10;13.15;;;11.85;;
75446;SDS011;64024;55.820;37.574;2023-04-03T06:54:38;14.50;;;13.10;;
75446;SDS011;64024;55.820;37.574;2023-04-03T06:57:06;15.15;;;13.73;;
75446;SDS011;64024;55.820;37.574;2023-04-03T06:59:32;14.95;;;13.32;;
75446;SDS011;64024;55.820;37.574;2023-04-03T07:01:59;15.32;;;13.75;;
75446;SDS011;64024;55.820;37.574;2023-04-03T07:06:52;15.35;;;13.23;;
75446;SDS011;64024;55.820;37.574;2023-04-03T07:09:19;14.85;;;13.50;;
75446;SDS011;64024;55.820;37.574;2023-04-03T07:11:46;18.02;;;14.02;;
75446;SDS011;64024;55.820;37.574;2023-04-03T07:14:12;15.13;;;13.73;;
75446;SDS011;64024;55.820;37.574;2023-04-03T07:16:39;15.70;;;14.00;;
75446;SDS011;64024;55.820;37.574;2023-04-03T07:19:05;15.48;;;14.07;;
75446;SDS011;64024;55.820;37.574;2023-04-03T07:21:33;14.95;;;13.50;;
75446;SDS011;64024;55.820;37.574;2023-04-03T07:24:00;15.23;;;13.63;;
75446;SDS011;64024;55.820;37.574;2023-04-03T07:26:26;16.33;;;14.73;;
75446;SDS011;64024;55.820;37.574;2023-04-03T07:28:53;15.15;;;13.65;;
75446;SDS011;64024;55.820;37.574;2023-04-03T07:31:19;15.35;;;13.90;;
75446;SDS011;64024;55.820;37.574;2023-04-03T07:33:45;14.05;;;12.75;;
75446;SDS011;64024;55.820;37.574;2023-04-03T07:36:14;15.65;;;14.07;;
75446;SDS011;64024;55.820;37.574;2023-04-03T07:38:41;13.73;;;12.43;;
75446;SDS011;64024;55.820;37.574;2023-04-03T07:41:07;15.50;;;14.00;;
75446;SDS011;64024;55.820;37.574;2023-04-03T07:43:39;14.48;;;13.00;;
75446;SDS011;64024;55.820;37.574;2023-04-03T07:46:06;14.30;;;12.93;;
75446;SDS011;64024;55.820;37.574;2023-04-03T07:48:31;14.15;;;12.60;;
75446;SDS011;64024;55.820;37.574;2023-04-03T07:51:01;14.48;;;13.18;;
75446;SDS011;64024;55.820;37.574;2023-04-03T07:53:29;13.70;;;12.30;;
75446;SDS011;64024;55.820;37.574;2023-04-03T07:55:58;14.48;;;13.18;;
75446;SDS011;64024;55.820;37.574;2023-04-03T07:58:24;14.85;;;13.30;;
75446;SDS011;64024;55.820;37.574;2023-04-03T08:00:52;16.05;;;14.38;;
75446;SDS011;64024;55.820;37.574;2023-04-03T08:03:18;15.13;;;13.73;;
75446;SDS011;64024;55.820;37.574;2023-04-03T08:05:45;17.27;;;15.15;;
75446;SDS011;64024;55.820;37.574;2023-04-03T08:08:12;15.38;;;13.77;;
75446;SDS011;64024;55.820;37.574;2023-04-03T08:10:40;15.90;;;14.30;;
75446;SDS011;64024;55.820;37.574;2023-04-03T08:13:07;16.25;;;14.57;;
75446;SDS011;64024;55.820;37.574;2023-04-03T08:15:34;18.92;;;17.10;;
75446;SDS011;64024;55.820;37.574;2023-04-03T08:18:00;16.42;;;14.48;;
75446;SDS011;64024;55.820;37.574;2023-04-03T08:20:27;16.77;;;13.23;;
75446;SDS011;64024;55.820;37.574;2023-04-03T08:22:54;14.73;;;12.55;;
75446;SDS011;64024;55.820;37.574;2023-04-03T08:25:21;15.40;;;12.90;;
75446;SDS011;64024;55.820;37.574;2023-04-03T08:27:47;15.23;;;11.73;;
75446;SDS011;64024;55.820;37.574;2023-04-03T08:30:13;14.95;;;11.88;;
75446;SDS011;64024;55.820;37.574;2023-04-03T08:32:39;15.10;;;12.77;;
75446;SDS011;64024;55.820;37.574;2023-04-03T08:35:08;14.05;;;12.45;;
75446;SDS011;64024;55.820;37.574;2023-04-03T08:37:35;13.10;;;11.05;;
75446;SDS011;64024;55.820;37.574;2023-04-03T08:40:02;13.23;;;11.57;;
75446;SDS011;64024;55.820;37.574;2023-04-03T08:46:08;11.88;;;10.70;;
75446;SDS011;64024;55.820;37.574;2023-04-03T08:48:41;16.13;;;12.18;;
75446;SDS011;64024;55.820;37.574;2023-04-03T08:51:15;12.45;;;10.20;;
75446;SDS011;64024;55.820;37.574;2023-04-03T08:53:55;10.65;;;9.55;;
75446;SDS011;64024;55.820;37.574;2023-04-03T08:56:28;12.48;;;9.75;;
75446;SDS011;64024;55.820;37.574;2023-04-03T08:59:06;10.70;;;9.10;;
75446;SDS011;64024;55.820;37.574;2023-04-03T09:01:39;10.98;;;8.88;;
75446;SDS011;64024;55.820;37.574;2023-04-03T09:04:13;10.45;;;9.23;;
75446;SDS011;64024;55.820;37.574;2023-04-03T09:06:43;13.05;;;9.70;;
75446;SDS011;64024;55.820;37.574;2023-04-03T09:14:46;12.70;;;9.65;;
75446;SDS011;64024;55.820;37.574;2023-04-03T09:17:20;9.57;;;7.75;;
75446;SDS011;64024;55.820;37.574;2023-04-03T09:22:55;10.55;;;8.98;;
75446;SDS011;64024;55.820;37.574;2023-04-03T09:25:27;9.70;;;8.70;;
75446;SDS011;64024;55.820;37.574;2023-04-03T09:27:59;10.73;;;7.97;;
75446;SDS011;64024;55.820;37.574;2023-04-03T09:30:26;11.63;;;9.13;;
75446;SDS011;64024;55.820;37.574;2023-04-03T09:32:54;12.65;;;9.18;;
75446;SDS011;64024;55.820;37.574;2023-04-03T09:35:29;10.93;;;8.40;;
75446;SDS011;64024;55.820;37.574;2023-04-03T09:38:01;10.35;;;8.30;;
75446;SDS011;64024;55.820;37.574;2023-04-03T09:40:41;9.68;;;7.53;;
75446;SDS011;64024;55.820;37.574;2023-04-03T09:43:22;8.60;;;7.47;;
75446;SDS011;64024;55.820;37.574;2023-04-03T09:45:53;11.93;;;8.23;;
75446;SDS011;64024;55.820;37.574;2023-04-03T09:48:22;14.85;;;7.28;;
75446;SDS011;64024;55.820;37.574;2023-04-03T09:56:03;12.60;;;8.02;;
75446;SDS011;64024;55.820;37.574;2023-04-03T10:01:28;12.38;;;8.45;;
75446;SDS011;64024;55.820;37.574;2023-04-03T10:06:39;9.07;;;7.90;;
75446;SDS011;64024;55.820;37.574;2023-04-03T10:12:02;12.52;;;8.55;;
75446;SDS011;64024;55.820;37.574;2023-04-03T10:14:33;13.02;;;9.20;;
75446;SDS011;64024;55.820;37.574;2023-04-03T10:22:28;11.68;;;8.68;;
75446;SDS011;64024;55.820;37.574;2023-04-03T10:25:21;10.38;;;8.15;;
75446;SDS011;64024;55.820;37.574;2023-04-03T10:27:59;10.07;;;8.85;;
75446;SDS011;64024;55.820;37.574;2023-04-03T10:30:32;12.48;;;9.13;;
75446;SDS011;64024;55.820;37.574;2023-04-03T10:41:23;9.90;;;8.90;;
75446;SDS011;64024;55.820;37.574;2023-04-03T10:46:43;14.90;;;9.88;;
75446;SDS011;64024;55.820;37.574;2023-04-03T10:55:09;11.63;;;9.35;;
75446;SDS011;64024;55.820;37.574;2023-04-03T10:57:50;12.43;;;9.30;;
75446;SDS011;64024;55.820;37.574;2023-04-03T11:00:20;10.77;;;8.68;;
75446;SDS011;64024;55.820;37.574;2023-04-03T11:02:57;11.43;;;9.35;;
75446;SDS011;64024;55.820;37.574;2023-04-03T11:05:29;14.48;;;9.75;;
75446;SDS011;64024;55.820;37.574;2023-04-03T11:08:04;16.52;;;8.70;;
75446;SDS011;64024;55.820;37.574;2023-04-03T11:10:46;10.93;;;8.93;;
75446;SDS011;64024;55.820;37.574;2023-04-03T11:13:22;9.85;;;8.85;;
75446;SDS011;64024;55.820;37.574;2023-04-03T11:15:58;10.75;;;8.23;;
75446;SDS011;64024;55.820;37.574;2023-04-03T11:18:43;11.75;;;7.38;;
75446;SDS011;64024;55.820;37.574;2023-04-03T11:24:31;12.75;;;8.35;;
75446;SDS011;64024;55.820;37.574;2023-04-03T11:26:57;10.30;;;7.68;;
75446;SDS011;64024;55.820;37.574;2023-04-03T11:29:32;9.23;;;6.95;;
75446;SDS011;64024;55.820;37.574;2023-04-03T11:35:10;9.00;;;7.97;;
75446;SDS011;64024;55.820;37.574;2023-04-03T11:37:40;14.05;;;7.75;;
75446;SDS011;64024;55.820;37.574;2023-04-03T11:40:29;9.88;;;8.48;;
75446;SDS011;64024;55.820;37.574;2023-04-03T11:48:06;10.57;;;7.22;;
75446;SDS011;64024;55.820;37.574;2023-04-03T11:50:46;8.75;;;7.03;;
75446;SDS011;64024;55.820;37.574;2023-04-03T11:58:15;12.85;;;10.48;;
75446;SDS011;64024;55.820;37.574;2023-04-03T12:00:53;14.90;;;11.00;;
75446;SDS011;64024;55.820;37.574;2023-04-03T12:06:42;9.35;;;7.97;;
75446;SDS011;64024;55.820;37.574;2023-04-03T12:08:44;9.70;;;8.57;;
75446;SDS011;64024;55.820;37.574;2023-04-03T12:13:41;10.27;;;7.07;;
75446;SDS011;64024;55.820;37.574;2023-04-03T12:16:20;9.38;;;7.18;;
75446;SDS011;64024;55.820;37.574;2023-04-03T12:21:15;8.25;;;6.57;;
75446;SDS011;64024;55.820;37.574;2023-04-03T12:23:57;9.07;;;6.97;;
75446;SDS011;64024;55.820;37.574;2023-04-03T12:26:50;7.90;;;7.03;;
75446;SDS011;64024;55.820;37.574;2023-04-03T12:43:09;7.90;;;7.10;;
75446;SDS011;64024;55.820;37.574;2023-04-03T12:48:26;8.38;;;6.82;;
75446;SDS011;64024;55.820;37.574;2023-04-03T12:50:53;10.23;;;6.40;;
75446;SDS011;64024;55.820;37.574;2023-04-03T12:53:33;10.05;;;6.95;;
75446;SDS011;64024;55.820;37.574;2023-04-03T12:58:53;7.10;;;5.80;;
75446;SDS011;64024;55.820;37.574;2023-04-03T13:01:23;6.28;;;5.65;;
75446;SDS011;64024;55.820;37.574;2023-04-03T13:03:54;7.43;;;5.93;;
75446;SDS011;64024;55.820;37.574;2023-04-03T13:06:24;7.18;;;6.38;;
75446;SDS011;64024;55.820;37.574;2023-04-03T13:08:56;6.70;;;5.03;;
75446;SDS011;64024;55.820;37.574;2023-04-03T13:11:27;6.68;;;5.75;;
75446;SDS011;64024;55.820;37.574;2023-04-03T13:16:30;7.18;;;5.82;;
75446;SDS011;64024;55.820;37.574;2023-04-03T13:18:57;6.93;;;5.88;;
75446;SDS011;64024;55.820;37.574;2023-04-03T13:21:30;7.80;;;6.95;;
75446;SDS011;64024;55.820;37.574;2023-04-03T13:23:59;6.60;;;5.88;;
75446;SDS011;64024;55.820;37.574;2023-04-03T13:26:29;7.88;;;5.43;;
75446;SDS011;64024;55.820;37.574;2023-04-03T13:29:06;6.10;;;5.00;;
75446;SDS011;64024;55.820;37.574;2023-04-03T13:31:35;7.75;;;5.00;;
75446;SDS011;64024;55.820;37.574;2023-04-03T13:34:10;7.03;;;5.53;;
75446;SDS011;64024;55.820;37.574;2023-04-03T13:36:40;8.18;;;5.95;;
75446;SDS011;64024;55.820;37.574;2023-04-03T13:41:41;6.97;;;5.50;;
75446;SDS011;64024;55.820;37.574;2023-04-03T13:46:50;8.00;;;5.22;;
75446;SDS011;64024;55.820;37.574;2023-04-03T13:49:43;6.50;;;4.25;;
75446;SDS011;64024;55.820;37.574;2023-04-03T13:55:00;8.10;;;4.97;;
75446;SDS011;64024;55.820;37.574;2023-04-03T13:57:52;5.47;;;4.97;;
75446;SDS011;64024;55.820;37.574;2023-04-03T14:00:26;7.32;;;6.03;;
75446;SDS011;64024;55.820;37.574;2023-04-03T14:02:57;6.63;;;5.50;;
75446;SDS011;64024;55.820;37.574;2023-04-03T14:05:24;6.38;;;5.43;;
75446;SDS011;64024;55.820;37.574;2023-04-03T14:07:52;10.60;;;6.57;;
75446;SDS011;64024;55.820;37.574;2023-04-03T14:10:20;6.70;;;6.00;;
75446;SDS011;64024;55.820;37.574;2023-04-03T14:12:47;6.45;;;5.43;;
75446;SDS011;64024;55.820;37.574;2023-04-03T14:15:20;9.27;;;5.85;;
75446;SDS011;64024;55.820;37.574;2023-04-03T14:17:50;6.70;;;6.03;;
75446;SDS011;64024;55.820;37.574;2023-04-03T14:20:17;8.07;;;6.38;;
75446;SDS011;64024;55.820;37.574;2023-04-03T14:22:47;9.02;;;5.65;;
75446;SDS011;64024;55.820;37.574;2023-04-03T14:25:14;5.85;;;5.22;;
75446;SDS011;64024;55.820;37.574;2023-04-03T14:27:45;6.53;;;5.72;;
75446;SDS011;64024;55.820;37.574;2023-04-03T14:30:18;9.82;;;6.28;;
75446;SDS011;64024;55.820;37.574;2023-04-03T14:32:48;9.45;;;6.10;;
75446;SDS011;64024;55.820;37.574;2023-04-03T14:35:15;8.25;;;6.10;;
75446;SDS011;64024;55.820;37.574;2023-04-03T14:37:44;7.78;;;6.18;;
75446;SDS011;64024;55.820;37.574;2023-04-03T14:40:15;9.77;;;6.93;;
75446;SDS011;64024;55.820;37.574;2023-04-03T14:42:44;8.25;;;6.57;;
75446;SDS011;64024;55.820;37.574;2023-04-03T14:45:12;8.02;;;6.10;;
75446;SDS011;64024;55.820;37.574;2023-04-03T14:48:12;8.10;;;6.53;;
75446;SDS011;64024;55.820;37.574;2023-04-03T14:50:35;8.52;;;6.50;;
75446;SDS011;64024;55.820;37.574;2023-04-03T14:53:01;7.40;;;6.70;;
75446;SDS011;64024;55.820;37.574;2023-04-03T14:55:27;7.35;;;6.55;;
75446;SDS011;64024;55.820;37.574;2023-04-03T14:57:53;7.78;;;5.53;;
75446;SDS011;64024;55.820;37.574;2023-04-03T15:00:21;7.97;;;6.10;;
75446;SDS011;64024;55.820;37.574;2023-04-03T15:02:48;6.53;;;5.82;;
75446;SDS011;64024;55.820;37.574;2023-04-03T15:05:14;8.38;;;6.25;;
75446;SDS011;64024;55.820;37.574;2023-04-03T15:07:42;7.97;;;7.18;;
75446;SDS011;64024;55.820;37.574;2023-04-03T15:12:45;8.45;;;6.28;;
75446;SDS011;64024;55.820;37.574;2023-04-03T15:15:14;9.35;;;7.72;;
75446;SDS011;64024;55.820;37.574;2023-04-03T15:17:42;8.82;;;6.78;;
75446;SDS011;64024;55.820;37.574;2023-04-03T15:20:11;8.07;;;7.32;;
75446;SDS011;64024;55.820;37.574;2023-04-03T15:22:40;9.18;;;6.68;;
75446;SDS011;64024;55.820;37.574;2023-04-03T15:25:06;8.13;;;7.25;;
75446;SDS011;64024;55.820;37.574;2023-04-03T15:27:33;7.68;;;6.75;;
75446;SDS011;64024;55.820;37.574;2023-04-03T15:29:59;9.52;;;6.63;;
75446;SDS011;64024;55.820;37.574;2023-04-03T15:32:26;9.23;;;7.22;;
75446;SDS011;64024;55.820;37.574;2023-04-03T15:34:53;8.68;;;6.85;;
75446;SDS011;64024;55.820;37.574;2023-04-03T15:37:20;7.05;;;6.35;;
75446;SDS011;64024;55.820;37.574;2023-04-03T15:39:46;6.80;;;6.10;;
75446;SDS011;64024;55.820;37.574;2023-04-03T15:42:12;6.53;;;5.30;;
75446;SDS011;64024;55.820;37.574;2023-04-03T15:44:38;8.68;;;6.53;;
75446;SDS011;64024;55.820;37.574;2023-04-03T15:47:04;7.60;;;6.57;;
75446;SDS011;64024;55.820;37.574;2023-04-03T15:49:30;7.22;;;6.38;;
75446;SDS011;64024;55.820;37.574;2023-04-03T15:51:58;9.32;;;6.82;;
75446;SDS011;64024;55.820;37.574;2023-04-03T15:54:24;7.60;;;5.93;;
75446;SDS011;64024;55.820;37.574;2023-04-03T15:56:51;8.57;;;6.55;;
75446;SDS011;64024;55.820;37.574;2023-04-03T15:59:17;7.15;;;5.53;;
75446;SDS011;64024;55.820;37.574;2023-04-03T16:01:44;7.32;;;6.05;;
75446;SDS011;64024;55.820;37.574;2023-04-03T16:04:10;7.65;;;6.35;;
75446;SDS011;64024;55.820;37.574;2023-04-03T16:06:37;6.82;;;5.47;;
75446;SDS011;64024;55.820;37.574;2023-04-03T16:09:03;6.15;;;5.43;;
75446;SDS011;64024;55.820;37.574;2023-04-03T16:11:30;7.40;;;6.22;;
75446;SDS011;64024;55.820;37.574;2023-04-03T16:13:56;8.13;;;6.15;;
75446;SDS011;64024;55.820;37.574;2023-04-03T16:16:22;5.95;;;5.43;;
75446;SDS011;64024;55.820;37.574;2023-04-03T16:18:51;7.38;;;6.07;;
75446;SDS011;64024;55.820;37.574;2023-04-03T16:21:18;6.65;;;6.00;;
75446;SDS011;64024;55.820;37.574;2023-04-03T16:23:44;7.13;;;5.75;;
75446;SDS011;64024;55.820;37.574;2023-04-03T16:26:11;6.07;;;5.05;;
75446;SDS011;64024;55.820;37.574;2023-04-03T16:28:37;5.85;;;5.25;;
75446;SDS011;64024;55.820;37.574;2023-04-03T16:31:03;7.55;;;5.28;;
75446;SDS011;64024;55.820;37.574;2023-04-03T16:33:32;5.90;;;5.05;;